Latest Weather Observations for Curtin

IDW60801

Issued at 5:33 am WST Thursday 1 September 2016 (issued every 30 minutes, with the page automatically refreshed every 10 minutes)

About weather observations | Map of weather stations | Latest weather observations for WA | Other Formats
Station Details ID: 003080 Name: CURTIN AERO Lat: -17.58 Lon: 123.83 Height: 77.5 m
Data from the previous 72 hours. | See also: Recent months at Curtin
Date/Time
WST
Temp
°C
App
Temp
°C
Dew
Point
°C
Rel
Hum
%
Delta-T
°C
Wind Press
QNH
hPa
Press
MSL
hPa
Rain since
9am
mm
Dir  Spd
km/h
Gust
km/h
Spd
kts
Gust
kts
01/05:30am 21.2 23.3 20.9 98 0.2 SW 11 13 6 7 1013.3 1013.0 0.0
01/05:00am 21.3 23.7 20.8 97 0.3 SW 9 11 5 6 1013.0 1012.7 0.0
01/04:30am 21.5 23.5 20.8 96 0.5 SW 11 15 6 8 1012.7 1012.4 0.0
01/04:00am 21.7 23.4 20.9 95 0.5 SW 13 17 7 9 1012.7 1012.4 0.0
01/03:30am 21.9 22.8 20.9 94 0.7 SW 17 22 9 12 1012.6 1012.3 0.0
01/03:00am 22.1 23.0 20.9 93 0.8 SW 17 24 9 13 1012.7 1012.4 0.0
01/02:30am 22.4 23.0 21.0 92 0.9 WSW 19 24 10 13 1012.8 1012.5 0.0
01/02:00am 22.7 23.8 21.2 91 1.0 WSW 17 24 9 13 1013.0 1012.7 0.0
01/01:30am 22.8 24.3 21.3 91 1.0 WSW 15 19 8 10 1013.2 1012.9 0.0
01/01:00am 23.2 24.7 21.3 89 1.3 WSW 15 19 8 10 1013.4 1013.1 0.0
01/12:30am 23.4 25.9 22.4 94 0.7 WSW 13 17 7 9 1013.7 1013.4 0.0
01/12:00am 23.4 26.6 22.4 94 0.7 WNW 9 11 5 6 1014.1 1013.8 0.0
 
Date/Time
WST
Temp
°C
App
Temp
°C
Dew
Point
°C
Rel
Hum
%
Delta-T
°C
Wind Press
QNH
hPa
Press
MSL
hPa
Rain since
9am
mm
Dir  Spd
km/h
Gust
km/h
Spd
kts
Gust
kts
31/11:30pm 23.8 26.5 22.2 91 1.1 NW 11 17 6 9 1014.2 1013.9 0.0
31/11:00pm 24.1 27.0 22.4 90 1.1 NW 11 19 6 10 1014.2 1013.9 0.0
31/10:30pm 23.8 26.9 22.2 91 1.1 NNW 9 11 5 6 1014.2 1013.9 0.0
31/10:00pm 23.7 26.6 21.8 89 1.3 NNW 9 11 5 6 1014.2 1013.9 0.0
31/09:30pm 23.6 26.8 21.3 87 1.5 N 6 7 3 4 1014.2 1013.9 0.0
31/09:00pm 23.8 26.7 21.1 85 1.8 NNW 7 9 4 5 1014.0 1013.7 0.0
31/08:30pm 24.3 27.3 20.8 81 2.3 NNW 6 7 3 4 1014.0 1013.7 0.0
31/08:00pm 24.8 27.1 20.7 78 2.7 NNW 9 11 5 6 1013.8 1013.5 0.0
31/07:30pm 25.3 27.5 20.5 75 3.1 NNW 9 11 5 6 1013.3 1013.0 0.0
31/07:00pm 25.9 27.9 20.7 73 3.4 WNW 11 15 6 8 1012.9 1012.6 0.0
31/06:30pm 26.7 29.1 20.1 67 4.3 NNW 7 9 4 5 1012.4 1012.1 0.0
31/06:00pm 27.7 30.0 19.8 62 5.2 NNW 7 9 4 5 1012.1 1011.8 0.0
31/05:30pm 28.9 31.1 19.5 57 6.1 NNW 7 13 4 7 1011.8 1011.5 0.0
31/05:00pm 29.9 31.6 19.3 53 6.9 NNW 9 15 5 8 1011.9 1011.6 0.0
31/04:30pm 30.2 31.7 18.9 50 7.3 NNW 9 17 5 9 1011.8 1011.5 0.0
31/04:00pm 30.1 30.7 18.5 49 7.5 NNW 13 17 7 9 1011.6 1011.3 0.0
31/03:30pm 31.4 32.2 19.1 48 8.0 WNW 13 20 7 11 1011.6 1011.3 0.0
31/03:00pm 30.4 30.8 19.1 50 7.4 W 15 20 8 11 1011.8 1011.5 0.0
31/02:30pm 30.4 30.8 19.1 50 7.4 W 15 20 8 11 1012.2 1011.9 0.0
31/02:00pm 30.3 30.9 18.7 50 7.5 WNW 13 22 7 12 1012.5 1012.2 0.0
31/01:30pm 30.5 31.4 19.2 51 7.4 WNW 13 19 7 10 1012.7 1012.4 0.0
31/01:00pm 30.4 31.1 19.7 52 7.0 W 15 20 8 11 1013.1 1012.8 0.0
31/12:30pm 29.8 31.0 19.8 55 6.6 W 13 19 7 10 1013.6 1013.3 0.0
31/12:00pm 29.6 31.1 20.5 58 6.0 SSW 13 20 7 11 1014.1 1013.8 0.0
31/11:30am 28.8 30.4 20.0 59 5.8 SW 11 15 6 8 1014.5 1014.2 0.0
31/11:00am 28.5 30.4 19.7 59 5.8 WSW 9 13 5 7 1015.2 1014.8 0.0
31/10:30am 28.4 30.9 20.2 61 5.4 S 7 11 4 6 1015.6 1015.2 0.0
31/10:00am 27.4 30.1 20.2 65 4.7 SSW 6 9 3 5 1015.9 1015.5 0.0
31/09:30am 27.6 30.3 20.7 66 4.6 SE 7 11 4 6 1016.1 1015.7 0.0
31/09:00am 26.4 29.2 21.6 75 3.2 SE 9 13 5 7 1016.1 1015.7 2.6
31/08:30am 25.3 28.7 21.6 80 2.5 NE 6 9 3 5 1016.2 1015.8 2.6
31/08:00am 24.0 27.4 21.7 87 1.5 ENE 6 9 3 5 1016.0 1015.6 2.6
31/07:30am 23.5 26.8 21.9 91 1.1 ESE 7 13 4 7 1015.5 1015.1 2.6
31/07:00am 23.1 26.2 22.1 94 0.7 ESE 9 13 5 7 1014.9 1014.5 2.6
31/06:30am 22.7 26.3 22.0 96 0.5 ESE 6 9 3 5 1014.7 1014.3 2.6
31/06:00am 22.2 26.1 21.9 98 0.2 E 4 6 2 3 1014.3 1014.0 2.6
31/05:30am 22.2 26.0 21.7 97 0.3 E 4 7 2 4 1013.9 1013.6 2.6
31/05:00am 22.3 25.2 21.8 97 0.3 SE 9 11 5 6 1013.5 1013.2 2.6
31/04:30am 22.4 25.7 21.9 97 0.3 SE 7 11 4 6 1013.5 1013.2 2.6
31/04:00am 22.4 25.7 21.9 97 0.3 SE 7 9 4 5 1013.4 1013.1 2.6
31/03:30am 22.3 25.9 22.0 98 0.2 E 6 7 3 4 1013.2 1012.9 2.6
31/03:00am 22.3 25.9 22.0 98 0.2 ENE 6 9 3 5 1013.3 1013.0 2.6
31/02:30am 22.4 25.4 21.9 97 0.3 NE 9 13 5 7 1013.3 1013.0 2.6
31/02:00am 22.5 25.8 21.8 96 0.5 NE 7 9 4 5 1013.6 1013.3 2.6
31/01:30am 22.6 25.9 21.8 95 0.5 NE 7 9 4 5 1013.8 1013.5 2.6
31/01:00am 22.7 25.9 21.7 94 0.7 NE 7 9 4 5 1014.2 1013.9 2.6
31/12:30am 22.7 25.8 21.5 93 0.8 NE 7 9 4 5 1014.4 1014.1 2.6
31/12:00am 22.7 25.7 21.3 92 0.9 NE 7 9 4 5 1014.7 1014.3 2.6
 
Date/Time
WST
Temp
°C
App
Temp
°C
Dew
Point
°C
Rel
Hum
%
Delta-T
°C
Wind Press
QNH
hPa
Press
MSL
hPa
Rain since
9am
mm
Dir  Spd
km/h
Gust
km/h
Spd
kts
Gust
kts
30/11:30pm 22.8 25.5 21.3 91 1.0 ENE 9 13 5 7 1014.8 1014.4 2.6
30/11:00pm 22.9 25.2 21.4 91 1.0 ENE 11 15 6 8 1014.7 1014.3 2.6
30/10:30pm 22.9 25.2 21.4 91 1.0 ENE 11 15 6 8 1014.8 1014.4 2.6
30/10:00pm 23.0 25.4 21.5 91 1.0 ENE 11 17 6 9 1014.8 1014.4 2.6
30/09:30pm 23.0 25.7 21.3 90 1.1 ENE 9 13 5 7 1015.1 1014.7 2.6
30/09:00pm 23.1 26.4 21.4 90 1.1 NE 6 9 3 5 1015.3 1014.9 2.6
30/08:30pm 23.2 26.2 21.3 89 1.3 NE 7 9 4 5 1015.0 1014.6 2.6
30/08:00pm 23.3 26.4 21.4 89 1.3 NE 7 11 4 6 1014.9 1014.5 2.6
30/07:30pm 23.3 26.3 21.2 88 1.4 ENE 7 9 4 5 1014.3 1014.0 2.6
30/07:00pm 23.6 27.0 20.9 85 1.8 ENE 4 7 2 4 1014.1 1013.8 2.6
30/06:30pm 23.8 26.8 20.9 84 1.9 ENE 6 9 3 5 1013.7 1013.4 2.6
30/06:00pm 23.9 26.9 20.8 83 2.0 NE 6 7 3 4 1013.5 1013.2 2.6
30/05:30pm 24.1 26.9 20.4 80 2.4 ENE 6 7 3 4 1013.3 1013.0 2.6
30/05:00pm 24.2 26.4 20.3 79 2.5 ENE 9 11 5 6 1013.1 1012.8 2.6
30/04:30pm 24.4 26.9 20.3 78 2.7 SE 7 9 4 5 1013.0 1012.7 2.6
30/04:00pm 24.0 26.1 20.1 79 2.5 E 9 11 5 6 1013.0 1012.7 2.6
30/03:30pm 24.2 26.3 20.1 78 2.7 E 9 11 5 6 1012.8 1012.5 2.6
30/03:00pm 24.3 26.5 19.6 75 3.0 ESE 7 11 4 6 1013.0 1012.7 2.6
30/02:30pm 24.1 26.2 20.2 79 2.5 E 9 15 5 8 1013.0 1012.7 2.6
30/02:00pm 23.2 25.4 20.3 84 1.9 E 9 11 5 6 1013.3 1013.0 2.6
30/01:30pm 22.8 25.5 21.4 92 0.9 NNE 9 11 5 6 1013.5 1013.2 2.6
30/01:00pm 22.9 25.9 20.8 88 1.4 S 6 9 3 5 1014.0 1013.7 2.6
30/12:43pm 23.3 25.9 20.1 82 2.1 SE 6 11 3 6 1014.2 1013.9 2.6
30/12:30pm 23.1 25.2 20.2 84 1.9 ESE 9 11 5 6 1014.3 1014.0 2.6
30/12:26pm 23.3 25.7 20.8 86 1.6 ESE 9 13 5 7 1014.4 1014.1 2.6
30/12:00pm 22.8 25.1 21.3 91 1.0 ESE 11 15 6 8 1014.7 1014.3 2.6
30/11:30am 21.8 24.6 21.5 98 0.2 ESE 9 15 5 8 1015.2 1014.8 2.6
30/11:00am 21.2 23.6 20.9 98 0.2 ESE 9 13 5 7 1015.5 1015.1 2.4
30/10:30am 21.1 23.5 20.8 98 0.2 SE 9 13 5 7 1016.0 1015.6 1.4
30/10:00am 21.2 23.6 20.9 98 0.2 SSE 9 13 5 7 1016.2 1015.8 1.0
30/09:30am 21.1 23.8 20.6 97 0.3 SSE 7 11 4 6 1016.4 1016.0 0.2
30/09:00am 20.8 24.0 20.5 98 0.2 SE 4 7 2 4 1016.5 1016.1 24.0
30/08:30am 20.5 24.4 20.3 99 0.1 CALM 0 0 0 0 1016.3 1015.9 23.6
30/08:00am 20.4 23.6 20.4 100 0.0 S 4 6 2 3 1016.2 1015.8 22.4
30/07:30am 20.3 23.8 20.3 100 0.0 S 2 7 1 4 1015.7 1015.3 21.6
30/07:25am 20.3 24.2 20.3 100 0.0 CALM 0 0 0 0 1015.6 1015.2 21.2
30/07:06am 20.2 22.9 20.2 100 0.0 SSW 6 7 3 4 1015.4 1015.0 20.4
30/07:00am 20.1 22.4 19.9 99 0.1 SSW 7 7 4 4 1015.3 1014.9 20.0
30/06:45am 20.1 22.6 19.9 99 0.1 SSE 6 9 3 5 1015.3 1014.9 19.0
30/06:30am 20.2 22.8 20.0 99 0.1 SSE 6 7 3 4 1015.1 1014.7 18.2
30/06:00am 20.2 23.6 20.2 100 0.0 E 2 6 1 3 1014.5 1014.2 15.6
30/05:30am 20.2 22.9 20.2 100 0.0 E 6 7 3 4 1013.8 1013.5 14.6
30/05:00am 20.2 23.9 19.9 98 0.2 CALM 0 0 0 0 1013.6 1013.3 14.4
30/04:30am 20.1 23.4 19.9 99 0.1 SW 2 6 1 3 1013.3 1013.0 14.2
30/04:15am 20.1 22.7 20.1 100 0.0 SW 6 7 3 4 1013.1 1012.8 14.2
30/04:00am 20.0 22.0 20.0 100 0.0 SW 9 11 5 6 1012.9 1012.6 14.2
30/03:45am 20.0 21.2 20.0 100 0.0 SSW 13 15 7 8 1012.9 1012.6 14.2
30/03:30am 20.0 21.2 19.8 99 0.1 SSW 13 17 7 9 1012.9 1012.6 14.0
30/03:00am 20.3 21.4 19.6 96 0.4 SSW 13 17 7 9 1012.9 1012.6 13.2
30/02:30am 20.9 23.4 20.2 96 0.5 SW 7 11 4 6 1012.9 1012.6 13.2
30/02:00am 20.7 23.6 20.7 100 0.0 NNE 6 7 3 4 1013.0 1012.7 13.2
30/01:30am 20.7 23.6 20.7 100 0.0 NE 6 6 3 3 1013.0 1012.7 13.0
30/01:00am 20.7 24.8 20.7 100 0.0 CALM 0 0 0 0 1013.4 1013.1 13.0
30/12:30am 20.6 24.5 20.4 99 0.1 CALM 0 0 0 0 1013.3 1013.0 13.0
30/12:00am 20.6 23.4 20.4 99 0.1 NE 6 7 3 4 1013.1 1012.8 12.2
 
Date/Time
WST
Temp
°C
App
Temp
°C
Dew
Point
°C
Rel
Hum
%
Delta-T
°C
Wind Press
QNH
hPa
Press
MSL
hPa
Rain since
9am
mm
Dir  Spd
km/h
Gust
km/h
Spd
kts
Gust
kts
29/11:30pm 20.7 23.3 20.5 99 0.1 NE 7 9 4 5 1013.6 1013.3 12.0
29/11:00pm 20.9 23.6 20.7 99 0.1 NNE 7 9 4 5 1014.1 1013.8 11.8
29/10:30pm 21.0 24.0 20.8 99 0.1 N 6 7 3 4 1014.0 1013.7 11.6
29/10:00pm 20.9 24.9 20.6 98 0.2 CALM 0 0 0 0 1013.8 1013.5 11.6
29/09:30pm 20.9 23.5 20.4 97 0.3 E 7 9 4 5 1013.3 1013.0 11.6
29/09:00pm 21.0 23.2 20.5 97 0.3 S 9 13 5 7 1013.3 1013.0 11.4
29/08:30pm 21.0 23.7 20.3 96 0.5 NE 6 13 3 7 1013.0 1012.7 11.4
29/08:00pm 20.6 23.0 20.1 97 0.3 NE 7 11 4 6 1012.6 1012.3 11.4
29/07:30pm 20.5 23.3 19.7 95 0.5 NNW 4 9 2 5 1012.8 1012.5 11.4
29/07:00pm 20.7 22.3 19.9 95 0.5 W 11 15 6 8 1012.7 1012.4 11.4
29/06:30pm 20.8 21.9 19.6 93 0.8 SSW 13 17 7 9 1012.4 1012.1 11.2
29/06:00pm 20.9 20.5 20.1 95 0.5 SW 22 26 12 14 1012.4 1012.1 10.6
29/05:30pm 21.2 22.4 20.7 97 0.3 W 15 24 8 13 1012.4 1012.1 9.2
29/05:00pm 21.6 22.8 21.4 99 0.1 SW 17 24 9 13 1012.0 1011.7 8.0
29/04:32pm 21.2 21.6 21.0 99 0.1 SW 20 26 11 14 1011.8 1011.5 6.0
29/04:30pm 21.3 21.8 21.1 99 0.1 SW 20 26 11 14 1011.8 1011.5 5.8
29/04:00pm 21.6 21.6 20.9 96 0.5 SW 22 30 12 16 1011.3 1011.0 0.8
29/03:30pm 22.4 21.9 19.9 86 1.6 SW 22 28 12 15 1010.6 1010.3 0.0
29/03:28pm 22.4 21.5 19.9 86 1.6 SSW 24 32 13 17 1010.5 1010.2 0.0
29/03:00pm 23.3 21.8 19.5 79 2.4 SSW 26 32 14 17 1010.6 1010.3 0.0
29/02:30pm 23.8 21.0 19.1 75 3.0 SSW 32 39 17 21 1010.5 1010.2 0.0
29/02:00pm 25.6 23.1 18.0 63 4.8 SW 28 35 15 19 1010.5 1010.2 0.0
29/01:30pm 27.1 25.9 17.6 56 6.0 SSW 20 28 11 15 1010.2 1009.9 0.0
29/01:00pm 28.2 27.3 17.7 53 6.7 SSE 19 28 10 15 1009.7 1009.4 0.0
29/12:30pm 28.7 28.5 17.6 51 7.0 SSW 15 22 8 12 1010.0 1009.7 0.0
29/12:00pm 29.2 29.4 17.7 50 7.3 SW 13 24 7 13 1010.4 1010.1 0.0
29/11:30am 29.3 28.2 17.2 48 7.7 SSW 19 26 10 14 1010.8 1010.5 0.0
29/11:00am 30.4 29.9 17.8 46 8.1 WSW 17 26 9 14 1011.1 1010.8 0.0
29/10:30am 29.2 29.2 17.1 48 7.6 SW 13 20 7 11 1011.8 1011.5 0.0
29/10:00am 29.4 29.4 17.2 47 7.7 WSW 13 20 7 11 1012.1 1011.8 0.0
29/09:30am 28.4 28.7 17.0 50 7.2 WSW 11 19 6 10 1012.5 1012.2 0.0
29/09:00am 28.1 28.8 17.0 51 7.0 SW 9 15 5 8 1012.7 1012.4 0.0
29/08:30am 26.8 27.8 16.4 53 6.4 NNE 6 9 3 5 1012.4 1012.1 0.0
29/08:00am 26.2 27.1 16.2 54 6.2 NE 6 7 3 4 1012.2 1011.9 0.0
29/07:30am 25.4 26.5 16.5 58 5.5 NNE 6 7 3 4 1012.0 1011.7 0.0
29/07:00am 24.3 25.3 16.3 61 4.9 NE 6 7 3 4 1011.9 1011.6 0.0
29/06:30am 23.0 23.7 17.0 69 3.7 ENE 9 11 5 6 1011.4 1011.1 0.0
29/06:00am 20.8 21.3 15.1 70 3.4 E 6 7 3 4 1011.3 1011.0 0.0

Other Formats:

Comma delimited format used in spreadsheet applications
http://www.bom.gov.au/fwo/IDW60801/IDW60801.94204.axf

JavaScript Object Notation format (JSON) in row-major order
http://www.bom.gov.au/fwo/IDW60801/IDW60801.94204.json